sensor_id;sensor_type;location;lat;lon;timestamp;P1;durP1;ratioP1;P2;durP2;ratioP2
10582;SDS011;33679;51.218;6.786;2022-12-18T00:00:46;8.67;;;5.00;;
10582;SDS011;33679;51.218;6.786;2022-12-18T00:03:17;10.33;;;5.27;;
10582;SDS011;33679;51.218;6.786;2022-12-18T00:05:47;9.00;;;4.90;;
10582;SDS011;33679;51.218;6.786;2022-12-18T00:08:15;11.10;;;5.57;;
10582;SDS011;33679;51.218;6.786;2022-12-18T00:10:43;10.03;;;5.63;;
10582;SDS011;33679;51.218;6.786;2022-12-18T00:13:16;11.23;;;5.83;;
10582;SDS011;33679;51.218;6.786;2022-12-18T00:15:43;10.30;;;4.90;;
10582;SDS011;33679;51.218;6.786;2022-12-18T00:18:12;9.30;;;4.73;;
10582;SDS011;33679;51.218;6.786;2022-12-18T00:20:48;9.77;;;5.10;;
10582;SDS011;33679;51.218;6.786;2022-12-18T00:23:15;9.40;;;5.10;;
10582;SDS011;33679;51.218;6.786;2022-12-18T00:25:53;9.30;;;4.73;;
10582;SDS011;33679;51.218;6.786;2022-12-18T00:28:21;8.57;;;5.13;;
10582;SDS011;33679;51.218;6.786;2022-12-18T00:30:48;10.93;;;5.77;;
10582;SDS011;33679;51.218;6.786;2022-12-18T00:33:16;8.93;;;5.40;;
10582;SDS011;33679;51.218;6.786;2022-12-18T00:35:44;9.13;;;5.70;;
10582;SDS011;33679;51.218;6.786;2022-12-18T00:38:12;9.70;;;5.00;;
10582;SDS011;33679;51.218;6.786;2022-12-18T00:40:42;7.80;;;4.70;;
10582;SDS011;33679;51.218;6.786;2022-12-18T00:43:13;12.27;;;5.00;;
10582;SDS011;33679;51.218;6.786;2022-12-18T00:45:39;10.60;;;5.57;;
10582;SDS011;33679;51.218;6.786;2022-12-18T00:48:06;10.73;;;5.77;;
10582;SDS011;33679;51.218;6.786;2022-12-18T00:50:33;9.20;;;5.60;;
10582;SDS011;33679;51.218;6.786;2022-12-18T00:53:00;8.03;;;5.13;;
10582;SDS011;33679;51.218;6.786;2022-12-18T00:55:29;11.77;;;5.60;;
10582;SDS011;33679;51.218;6.786;2022-12-18T00:57:56;12.23;;;6.20;;
10582;SDS011;33679;51.218;6.786;2022-12-18T01:00:23;8.90;;;5.23;;
10582;SDS011;33679;51.218;6.786;2022-12-18T01:02:50;8.83;;;5.53;;
10582;SDS011;33679;51.218;6.786;2022-12-18T01:05:17;8.83;;;5.07;;
10582;SDS011;33679;51.218;6.786;2022-12-18T01:07:44;9.10;;;5.43;;
10582;SDS011;33679;51.218;6.786;2022-12-18T01:10:12;11.83;;;5.20;;
10582;SDS011;33679;51.218;6.786;2022-12-18T01:12:41;8.20;;;5.03;;
10582;SDS011;33679;51.218;6.786;2022-12-18T01:15:09;11.67;;;5.60;;
10582;SDS011;33679;51.218;6.786;2022-12-18T01:17:38;10.33;;;5.07;;
10582;SDS011;33679;51.218;6.786;2022-12-18T01:20:05;11.73;;;5.97;;
10582;SDS011;33679;51.218;6.786;2022-12-18T01:22:33;11.10;;;5.90;;
10582;SDS011;33679;51.218;6.786;2022-12-18T01:25:01;12.20;;;5.80;;
10582;SDS011;33679;51.218;6.786;2022-12-18T01:27:33;13.10;;;5.73;;
10582;SDS011;33679;51.218;6.786;2022-12-18T01:30:04;8.87;;;5.83;;
10582;SDS011;33679;51.218;6.786;2022-12-18T01:32:32;8.27;;;4.93;;
10582;SDS011;33679;51.218;6.786;2022-12-18T01:35:01;15.03;;;5.70;;
10582;SDS011;33679;51.218;6.786;2022-12-18T01:37:28;9.53;;;5.60;;
10582;SDS011;33679;51.218;6.786;2022-12-18T01:39:55;10.53;;;4.90;;
10582;SDS011;33679;51.218;6.786;2022-12-18T01:42:22;8.37;;;4.73;;
10582;SDS011;33679;51.218;6.786;2022-12-18T01:44:55;9.87;;;5.40;;
10582;SDS011;33679;51.218;6.786;2022-12-18T01:47:30;7.53;;;4.60;;
10582;SDS011;33679;51.218;6.786;2022-12-18T01:50:05;9.27;;;5.10;;
10582;SDS011;33679;51.218;6.786;2022-12-18T01:52:35;5.10;;;4.27;;
10582;SDS011;33679;51.218;6.786;2022-12-18T01:55:07;9.87;;;5.73;;
10582;SDS011;33679;51.218;6.786;2022-12-18T01:57:35;8.90;;;5.33;;
10582;SDS011;33679;51.218;6.786;2022-12-18T02:00:06;8.13;;;4.87;;
10582;SDS011;33679;51.218;6.786;2022-12-18T02:02:40;10.20;;;5.93;;
10582;SDS011;33679;51.218;6.786;2022-12-18T02:05:07;8.57;;;5.40;;
10582;SDS011;33679;51.218;6.786;2022-12-18T02:07:38;8.03;;;4.60;;
10582;SDS011;33679;51.218;6.786;2022-12-18T02:10:13;9.20;;;5.17;;
10582;SDS011;33679;51.218;6.786;2022-12-18T02:12:48;9.30;;;5.50;;
10582;SDS011;33679;51.218;6.786;2022-12-18T02:15:23;10.20;;;5.90;;
10582;SDS011;33679;51.218;6.786;2022-12-18T02:17:57;9.80;;;5.40;;
10582;SDS011;33679;51.218;6.786;2022-12-18T02:20:32;9.03;;;5.30;;
10582;SDS011;33679;51.218;6.786;2022-12-18T02:23:10;9.03;;;5.83;;
10582;SDS011;33679;51.218;6.786;2022-12-18T02:25:54;8.07;;;4.60;;
10582;SDS011;33679;51.218;6.786;2022-12-18T02:28:31;8.80;;;5.50;;
10582;SDS011;33679;51.218;6.786;2022-12-18T02:31:06;8.57;;;5.00;;
10582;SDS011;33679;51.218;6.786;2022-12-18T02:33:36;10.10;;;5.90;;
10582;SDS011;33679;51.218;6.786;2022-12-18T02:36:06;10.73;;;5.43;;
10582;SDS011;33679;51.218;6.786;2022-12-18T02:38:36;7.97;;;4.90;;
10582;SDS011;33679;51.218;6.786;2022-12-18T02:41:11;11.00;;;5.43;;
10582;SDS011;33679;51.218;6.786;2022-12-18T02:43:45;7.33;;;5.10;;
10582;SDS011;33679;51.218;6.786;2022-12-18T02:46:23;12.00;;;5.10;;
10582;SDS011;33679;51.218;6.786;2022-12-18T02:49:02;11.03;;;5.30;;
10582;SDS011;33679;51.218;6.786;2022-12-18T02:51:38;10.70;;;5.43;;
10582;SDS011;33679;51.218;6.786;2022-12-18T02:54:18;10.97;;;5.50;;
10582;SDS011;33679;51.218;6.786;2022-12-18T02:56:55;7.90;;;5.00;;
10582;SDS011;33679;51.218;6.786;2022-12-18T02:59:29;8.67;;;5.13;;
10582;SDS011;33679;51.218;6.786;2022-12-18T03:02:12;13.80;;;5.60;;
10582;SDS011;33679;51.218;6.786;2022-12-18T03:04:48;10.50;;;5.73;;
10582;SDS011;33679;51.218;6.786;2022-12-18T03:07:23;9.90;;;5.10;;
10582;SDS011;33679;51.218;6.786;2022-12-18T03:10:00;8.60;;;5.30;;
10582;SDS011;33679;51.218;6.786;2022-12-18T03:12:30;9.00;;;4.90;;
10582;SDS011;33679;51.218;6.786;2022-12-18T03:15:01;12.37;;;4.90;;
10582;SDS011;33679;51.218;6.786;2022-12-18T03:17:35;11.57;;;5.50;;
10582;SDS011;33679;51.218;6.786;2022-12-18T03:20:11;9.10;;;4.60;;
10582;SDS011;33679;51.218;6.786;2022-12-18T03:22:44;8.60;;;4.90;;
10582;SDS011;33679;51.218;6.786;2022-12-18T03:25:14;8.20;;;5.17;;
10582;SDS011;33679;51.218;6.786;2022-12-18T03:27:47;7.00;;;4.77;;
10582;SDS011;33679;51.218;6.786;2022-12-18T03:30:19;7.63;;;4.77;;
10582;SDS011;33679;51.218;6.786;2022-12-18T03:32:48;6.17;;;4.53;;
10582;SDS011;33679;51.218;6.786;2022-12-18T03:35:21;6.40;;;4.33;;
10582;SDS011;33679;51.218;6.786;2022-12-18T03:37:52;10.60;;;4.77;;
10582;SDS011;33679;51.218;6.786;2022-12-18T03:40:19;9.83;;;4.67;;
10582;SDS011;33679;51.218;6.786;2022-12-18T03:42:55;9.13;;;5.03;;
10582;SDS011;33679;51.218;6.786;2022-12-18T03:45:32;10.13;;;5.20;;
10582;SDS011;33679;51.218;6.786;2022-12-18T03:48:05;10.27;;;5.30;;
10582;SDS011;33679;51.218;6.786;2022-12-18T03:50:43;6.37;;;4.27;;
10582;SDS011;33679;51.218;6.786;2022-12-18T03:53:16;9.17;;;5.03;;
10582;SDS011;33679;51.218;6.786;2022-12-18T03:55:49;8.50;;;4.67;;
10582;SDS011;33679;51.218;6.786;2022-12-18T03:58:20;7.93;;;5.27;;
10582;SDS011;33679;51.218;6.786;2022-12-18T04:00:58;7.57;;;4.50;;
10582;SDS011;33679;51.218;6.786;2022-12-18T04:03:29;9.47;;;4.43;;
10582;SDS011;33679;51.218;6.786;2022-12-18T04:05:58;7.07;;;4.67;;
10582;SDS011;33679;51.218;6.786;2022-12-18T04:08:28;7.37;;;4.13;;
10582;SDS011;33679;51.218;6.786;2022-12-18T04:11:01;8.20;;;4.80;;
10582;SDS011;33679;51.218;6.786;2022-12-18T04:13:32;8.30;;;5.17;;
10582;SDS011;33679;51.218;6.786;2022-12-18T04:16:05;9.43;;;4.70;;
10582;SDS011;33679;51.218;6.786;2022-12-18T04:18:33;6.50;;;4.70;;
10582;SDS011;33679;51.218;6.786;2022-12-18T04:21:01;9.30;;;4.37;;
10582;SDS011;33679;51.218;6.786;2022-12-18T04:23:28;7.30;;;4.47;;
10582;SDS011;33679;51.218;6.786;2022-12-18T04:25:57;8.93;;;4.23;;
10582;SDS011;33679;51.218;6.786;2022-12-18T04:28:44;8.93;;;4.43;;
10582;SDS011;33679;51.218;6.786;2022-12-18T04:31:12;7.47;;;4.80;;
10582;SDS011;33679;51.218;6.786;2022-12-18T04:33:39;8.03;;;4.70;;
10582;SDS011;33679;51.218;6.786;2022-12-18T04:36:07;8.10;;;5.03;;
10582;SDS011;33679;51.218;6.786;2022-12-18T04:38:34;9.00;;;5.23;;
10582;SDS011;33679;51.218;6.786;2022-12-18T04:41:06;7.23;;;4.63;;
10582;SDS011;33679;51.218;6.786;2022-12-18T04:43:34;9.70;;;4.80;;
10582;SDS011;33679;51.218;6.786;2022-12-18T04:46:03;7.00;;;4.43;;
10582;SDS011;33679;51.218;6.786;2022-12-18T04:48:31;6.27;;;4.13;;
10582;SDS011;33679;51.218;6.786;2022-12-18T04:51:00;8.07;;;4.40;;
10582;SDS011;33679;51.218;6.786;2022-12-18T04:53:27;10.60;;;4.77;;
10582;SDS011;33679;51.218;6.786;2022-12-18T04:56:02;7.60;;;4.60;;
10582;SDS011;33679;51.218;6.786;2022-12-18T04:58:33;8.40;;;5.07;;
10582;SDS011;33679;51.218;6.786;2022-12-18T05:01:00;6.30;;;4.70;;
10582;SDS011;33679;51.218;6.786;2022-12-18T05:03:30;6.20;;;4.03;;
10582;SDS011;33679;51.218;6.786;2022-12-18T05:05:57;7.40;;;4.33;;
10582;SDS011;33679;51.218;6.786;2022-12-18T05:08:24;8.63;;;4.40;;
10582;SDS011;33679;51.218;6.786;2022-12-18T05:10:57;7.80;;;4.70;;
10582;SDS011;33679;51.218;6.786;2022-12-18T05:13:25;9.20;;;4.60;;
10582;SDS011;33679;51.218;6.786;2022-12-18T05:15:52;10.13;;;4.73;;
10582;SDS011;33679;51.218;6.786;2022-12-18T05:18:19;8.13;;;4.33;;
10582;SDS011;33679;51.218;6.786;2022-12-18T05:20:48;8.40;;;5.00;;
10582;SDS011;33679;51.218;6.786;2022-12-18T05:23:18;5.23;;;4.03;;
10582;SDS011;33679;51.218;6.786;2022-12-18T05:25:50;6.70;;;4.30;;
10582;SDS011;33679;51.218;6.786;2022-12-18T05:28:18;8.43;;;4.47;;
10582;SDS011;33679;51.218;6.786;2022-12-18T05:30:47;7.20;;;4.80;;
10582;SDS011;33679;51.218;6.786;2022-12-18T05:33:15;8.17;;;3.70;;
10582;SDS011;33679;51.218;6.786;2022-12-18T05:35:43;8.70;;;4.83;;
10582;SDS011;33679;51.218;6.786;2022-12-18T05:38:11;5.23;;;3.90;;
10582;SDS011;33679;51.218;6.786;2022-12-18T05:40:41;9.40;;;5.00;;
10582;SDS011;33679;51.218;6.786;2022-12-18T05:43:09;7.10;;;4.27;;
10582;SDS011;33679;51.218;6.786;2022-12-18T05:45:38;6.43;;;4.07;;
10582;SDS011;33679;51.218;6.786;2022-12-18T05:48:06;9.00;;;4.70;;
10582;SDS011;33679;51.218;6.786;2022-12-18T05:50:34;7.13;;;4.23;;
10582;SDS011;33679;51.218;6.786;2022-12-18T05:53:01;9.90;;;4.37;;
10582;SDS011;33679;51.218;6.786;2022-12-18T05:55:32;6.10;;;3.90;;
10582;SDS011;33679;51.218;6.786;2022-12-18T05:58:01;10.53;;;4.70;;
10582;SDS011;33679;51.218;6.786;2022-12-18T06:00:29;6.93;;;4.47;;
10582;SDS011;33679;51.218;6.786;2022-12-18T06:02:57;8.23;;;4.20;;
10582;SDS011;33679;51.218;6.786;2022-12-18T06:05:26;7.20;;;4.40;;
10582;SDS011;33679;51.218;6.786;2022-12-18T06:07:53;9.40;;;4.60;;
10582;SDS011;33679;51.218;6.786;2022-12-18T06:10:21;6.13;;;4.00;;
10582;SDS011;33679;51.218;6.786;2022-12-18T06:12:49;8.93;;;5.00;;
10582;SDS011;33679;51.218;6.786;2022-12-18T06:15:16;8.97;;;4.43;;
10582;SDS011;33679;51.218;6.786;2022-12-18T06:17:44;5.40;;;3.90;;
10582;SDS011;33679;51.218;6.786;2022-12-18T06:20:11;7.50;;;4.10;;
10582;SDS011;33679;51.218;6.786;2022-12-18T06:22:38;7.93;;;4.27;;
10582;SDS011;33679;51.218;6.786;2022-12-18T06:25:05;8.00;;;4.30;;
10582;SDS011;33679;51.218;6.786;2022-12-18T06:27:33;5.60;;;4.30;;
10582;SDS011;33679;51.218;6.786;2022-12-18T06:30:02;7.17;;;3.87;;
10582;SDS011;33679;51.218;6.786;2022-12-18T06:32:30;7.70;;;4.37;;
10582;SDS011;33679;51.218;6.786;2022-12-18T06:34:57;5.87;;;4.10;;
10582;SDS011;33679;51.218;6.786;2022-12-18T06:37:24;9.40;;;4.17;;
10582;SDS011;33679;51.218;6.786;2022-12-18T06:39:51;6.40;;;3.87;;
10582;SDS011;33679;51.218;6.786;2022-12-18T06:42:24;8.60;;;4.80;;
10582;SDS011;33679;51.218;6.786;2022-12-18T06:44:51;9.13;;;5.10;;
10582;SDS011;33679;51.218;6.786;2022-12-18T06:47:20;7.80;;;4.80;;
10582;SDS011;33679;51.218;6.786;2022-12-18T06:49:47;7.13;;;4.13;;
10582;SDS011;33679;51.218;6.786;2022-12-18T06:52:17;7.80;;;4.30;;
10582;SDS011;33679;51.218;6.786;2022-12-18T06:54:45;6.70;;;4.30;;
10582;SDS011;33679;51.218;6.786;2022-12-18T06:57:12;9.33;;;4.77;;
10582;SDS011;33679;51.218;6.786;2022-12-18T06:59:39;4.90;;;3.80;;
10582;SDS011;33679;51.218;6.786;2022-12-18T07:02:06;8.43;;;4.53;;
10582;SDS011;33679;51.218;6.786;2022-12-18T07:04:38;7.03;;;4.60;;
10582;SDS011;33679;51.218;6.786;2022-12-18T07:07:05;5.60;;;3.97;;
10582;SDS011;33679;51.218;6.786;2022-12-18T07:09:32;9.10;;;4.43;;
10582;SDS011;33679;51.218;6.786;2022-12-18T07:12:00;9.70;;;4.87;;
10582;SDS011;33679;51.218;6.786;2022-12-18T07:14:27;6.70;;;3.93;;
10582;SDS011;33679;51.218;6.786;2022-12-18T07:16:54;9.50;;;5.10;;
10582;SDS011;33679;51.218;6.786;2022-12-18T07:19:24;7.83;;;4.60;;
10582;SDS011;33679;51.218;6.786;2022-12-18T07:21:53;7.83;;;4.87;;
10582;SDS011;33679;51.218;6.786;2022-12-18T07:24:20;8.70;;;5.23;;
10582;SDS011;33679;51.218;6.786;2022-12-18T07:26:47;7.07;;;4.40;;
10582;SDS011;33679;51.218;6.786;2022-12-18T07:29:14;9.30;;;5.00;;
10582;SDS011;33679;51.218;6.786;2022-12-18T07:31:41;7.53;;;4.70;;
10582;SDS011;33679;51.218;6.786;2022-12-18T07:34:09;10.63;;;5.60;;
10582;SDS011;33679;51.218;6.786;2022-12-18T07:36:37;9.20;;;5.23;;
10582;SDS011;33679;51.218;6.786;2022-12-18T07:39:06;11.63;;;5.50;;
10582;SDS011;33679;51.218;6.786;2022-12-18T07:41:33;13.73;;;5.47;;
10582;SDS011;33679;51.218;6.786;2022-12-18T07:44:08;9.03;;;5.20;;
10582;SDS011;33679;51.218;6.786;2022-12-18T07:46:36;6.63;;;4.60;;
10582;SDS011;33679;51.218;6.786;2022-12-18T07:49:03;13.10;;;5.60;;
10582;SDS011;33679;51.218;6.786;2022-12-18T07:51:31;9.43;;;5.50;;
10582;SDS011;33679;51.218;6.786;2022-12-18T07:53:58;8.63;;;4.43;;
10582;SDS011;33679;51.218;6.786;2022-12-18T07:56:26;10.87;;;5.33;;
10582;SDS011;33679;51.218;6.786;2022-12-18T07:58:53;6.27;;;4.50;;
10582;SDS011;33679;51.218;6.786;2022-12-18T08:01:20;10.40;;;3.87;;
10582;SDS011;33679;51.218;6.786;2022-12-18T08:03:48;10.10;;;6.23;;
10582;SDS011;33679;51.218;6.786;2022-12-18T08:06:15;10.17;;;5.20;;
10582;SDS011;33679;51.218;6.786;2022-12-18T08:08:42;9.20;;;4.40;;
10582;SDS011;33679;51.218;6.786;2022-12-18T08:11:09;10.27;;;5.07;;
10582;SDS011;33679;51.218;6.786;2022-12-18T08:13:40;8.50;;;4.30;;
10582;SDS011;33679;51.218;6.786;2022-12-18T08:16:07;9.30;;;4.83;;
10582;SDS011;33679;51.218;6.786;2022-12-18T08:18:35;9.53;;;5.20;;
10582;SDS011;33679;51.218;6.786;2022-12-18T08:21:09;7.57;;;5.20;;
10582;SDS011;33679;51.218;6.786;2022-12-18T08:23:40;11.83;;;5.50;;
10582;SDS011;33679;51.218;6.786;2022-12-18T08:26:08;8.50;;;5.17;;
10582;SDS011;33679;51.218;6.786;2022-12-18T08:28:35;7.97;;;4.20;;
10582;SDS011;33679;51.218;6.786;2022-12-18T08:31:03;7.13;;;4.80;;
10582;SDS011;33679;51.218;6.786;2022-12-18T08:33:30;11.60;;;6.20;;
10582;SDS011;33679;51.218;6.786;2022-12-18T08:35:58;8.47;;;4.73;;
10582;SDS011;33679;51.218;6.786;2022-12-18T08:38:26;6.83;;;3.73;;
10582;SDS011;33679;51.218;6.786;2022-12-18T08:40:57;11.67;;;6.70;;
10582;SDS011;33679;51.218;6.786;2022-12-18T08:43:25;9.57;;;5.40;;
10582;SDS011;33679;51.218;6.786;2022-12-18T08:46:11;11.00;;;5.00;;
10582;SDS011;33679;51.218;6.786;2022-12-18T08:48:41;11.97;;;5.97;;
10582;SDS011;33679;51.218;6.786;2022-12-18T08:51:11;9.90;;;5.50;;
10582;SDS011;33679;51.218;6.786;2022-12-18T08:53:38;7.40;;;5.13;;
10582;SDS011;33679;51.218;6.786;2022-12-18T08:56:06;10.60;;;5.50;;
10582;SDS011;33679;51.218;6.786;2022-12-18T08:58:33;9.63;;;4.90;;
10582;SDS011;33679;51.218;6.786;2022-12-18T09:01:00;10.60;;;5.57;;
10582;SDS011;33679;51.218;6.786;2022-12-18T09:03:29;10.30;;;6.50;;
10582;SDS011;33679;51.218;6.786;2022-12-18T09:05:59;11.73;;;5.87;;
10582;SDS011;33679;51.218;6.786;2022-12-18T09:08:26;9.70;;;5.00;;
10582;SDS011;33679;51.218;6.786;2022-12-18T09:10:54;8.33;;;5.70;;
10582;SDS011;33679;51.218;6.786;2022-12-18T09:13:21;11.00;;;5.10;;
10582;SDS011;33679;51.218;6.786;2022-12-18T09:15:50;9.07;;;5.63;;
10582;SDS011;33679;51.218;6.786;2022-12-18T09:18:18;10.07;;;4.93;;
10582;SDS011;33679;51.218;6.786;2022-12-18T09:20:48;10.30;;;5.00;;
10582;SDS011;33679;51.218;6.786;2022-12-18T09:23:17;10.43;;;5.33;;
10582;SDS011;33679;51.218;6.786;2022-12-18T09:25:45;9.90;;;5.90;;
10582;SDS011;33679;51.218;6.786;2022-12-18T09:28:15;10.60;;;5.40;;
10582;SDS011;33679;51.218;6.786;2022-12-18T09:30:44;8.90;;;5.00;;
10582;SDS011;33679;51.218;6.786;2022-12-18T09:33:13;11.03;;;5.10;;
10582;SDS011;33679;51.218;6.786;2022-12-18T09:35:42;7.43;;;5.30;;
10582;SDS011;33679;51.218;6.786;2022-12-18T09:38:12;9.20;;;5.00;;
10582;SDS011;33679;51.218;6.786;2022-12-18T09:40:41;10.23;;;5.60;;
10582;SDS011;33679;51.218;6.786;2022-12-18T09:43:13;7.70;;;4.67;;
10582;SDS011;33679;51.218;6.786;2022-12-18T09:45:45;9.17;;;4.70;;
10582;SDS011;33679;51.218;6.786;2022-12-18T09:48:15;9.90;;;5.27;;
10582;SDS011;33679;51.218;6.786;2022-12-18T09:50:47;9.00;;;4.93;;
10582;SDS011;33679;51.218;6.786;2022-12-18T09:53:19;12.70;;;5.60;;
10582;SDS011;33679;51.218;6.786;2022-12-18T09:55:48;9.60;;;5.80;;
10582;SDS011;33679;51.218;6.786;2022-12-18T09:58:20;9.70;;;6.10;;
10582;SDS011;33679;51.218;6.786;2022-12-18T10:00:54;10.97;;;5.13;;
10582;SDS011;33679;51.218;6.786;2022-12-18T10:03:21;8.03;;;5.07;;
10582;SDS011;33679;51.218;6.786;2022-12-18T10:05:51;8.80;;;5.03;;
10582;SDS011;33679;51.218;6.786;2022-12-18T10:08:29;8.67;;;5.63;;
10582;SDS011;33679;51.218;6.786;2022-12-18T10:11:20;12.13;;;5.30;;
10582;SDS011;33679;51.218;6.786;2022-12-18T10:13:54;8.50;;;4.30;;
10582;SDS011;33679;51.218;6.786;2022-12-18T10:16:27;14.00;;;5.90;;
10582;SDS011;33679;51.218;6.786;2022-12-18T10:19:07;11.03;;;5.87;;
10582;SDS011;33679;51.218;6.786;2022-12-18T10:21:46;9.57;;;4.80;;
10582;SDS011;33679;51.218;6.786;2022-12-18T10:24:20;11.03;;;5.50;;
10582;SDS011;33679;51.218;6.786;2022-12-18T10:26:54;10.53;;;5.20;;
10582;SDS011;33679;51.218;6.786;2022-12-18T10:29:25;13.03;;;5.27;;
10582;SDS011;33679;51.218;6.786;2022-12-18T10:31:53;10.87;;;6.53;;
10582;SDS011;33679;51.218;6.786;2022-12-18T10:34:20;12.10;;;5.67;;
10582;SDS011;33679;51.218;6.786;2022-12-18T10:36:47;9.33;;;5.67;;
10582;SDS011;33679;51.218;6.786;2022-12-18T10:39:16;9.60;;;5.50;;
10582;SDS011;33679;51.218;6.786;2022-12-18T10:41:49;11.03;;;5.07;;
10582;SDS011;33679;51.218;6.786;2022-12-18T10:44:17;9.73;;;6.13;;
10582;SDS011;33679;51.218;6.786;2022-12-18T10:46:48;14.13;;;6.70;;
10582;SDS011;33679;51.218;6.786;2022-12-18T10:49:21;11.73;;;5.60;;
10582;SDS011;33679;51.218;6.786;2022-12-18T10:51:52;11.50;;;6.73;;
10582;SDS011;33679;51.218;6.786;2022-12-18T10:54:33;12.00;;;5.90;;
10582;SDS011;33679;51.218;6.786;2022-12-18T10:57:15;10.10;;;5.33;;
10582;SDS011;33679;51.218;6.786;2022-12-18T10:59:50;10.33;;;6.10;;
10582;SDS011;33679;51.218;6.786;2022-12-18T11:02:27;10.33;;;5.27;;
10582;SDS011;33679;51.218;6.786;2022-12-18T11:04:59;8.13;;;5.60;;
10582;SDS011;33679;51.218;6.786;2022-12-18T11:07:33;7.40;;;5.20;;
10582;SDS011;33679;51.218;6.786;2022-12-18T11:10:16;9.93;;;5.77;;
10582;SDS011;33679;51.218;6.786;2022-12-18T11:12:47;16.43;;;8.27;;
10582;SDS011;33679;51.218;6.786;2022-12-18T11:15:16;10.40;;;6.00;;
10582;SDS011;33679;51.218;6.786;2022-12-18T11:17:49;9.37;;;5.20;;
10582;SDS011;33679;51.218;6.786;2022-12-18T11:20:19;9.60;;;4.97;;
10582;SDS011;33679;51.218;6.786;2022-12-18T11:22:56;12.53;;;5.87;;
10582;SDS011;33679;51.218;6.786;2022-12-18T11:25:25;11.20;;;5.70;;
10582;SDS011;33679;51.218;6.786;2022-12-18T11:28:02;9.10;;;4.40;;
10582;SDS011;33679;51.218;6.786;2022-12-18T11:30:31;9.80;;;5.60;;
10582;SDS011;33679;51.218;6.786;2022-12-18T11:33:08;11.33;;;6.27;;
10582;SDS011;33679;51.218;6.786;2022-12-18T11:35:42;10.07;;;5.00;;
10582;SDS011;33679;51.218;6.786;2022-12-18T11:38:17;9.10;;;5.93;;
10582;SDS011;33679;51.218;6.786;2022-12-18T11:40:52;13.30;;;6.27;;
10582;SDS011;33679;51.218;6.786;2022-12-18T11:43:31;13.37;;;6.23;;
10582;SDS011;33679;51.218;6.786;2022-12-18T11:46:04;11.00;;;6.17;;
10582;SDS011;33679;51.218;6.786;2022-12-18T11:48:37;13.83;;;6.37;;
10582;SDS011;33679;51.218;6.786;2022-12-18T11:51:10;9.27;;;5.97;;
10582;SDS011;33679;51.218;6.786;2022-12-18T11:53:42;19.67;;;10.43;;
10582;SDS011;33679;51.218;6.786;2022-12-18T11:56:14;10.93;;;6.03;;
10582;SDS011;33679;51.218;6.786;2022-12-18T11:58:58;11.63;;;5.90;;
10582;SDS011;33679;51.218;6.786;2022-12-18T12:01:37;11.93;;;6.40;;
10582;SDS011;33679;51.218;6.786;2022-12-18T12:04:20;12.37;;;5.73;;
10582;SDS011;33679;51.218;6.786;2022-12-18T12:07:33;13.20;;;5.77;;
10582;SDS011;33679;51.218;6.786;2022-12-18T12:10:22;11.57;;;6.00;;
10582;SDS011;33679;51.218;6.786;2022-12-18T12:13:11;11.10;;;6.30;;
10582;SDS011;33679;51.218;6.786;2022-12-18T12:15:49;12.33;;;7.20;;
10582;SDS011;33679;51.218;6.786;2022-12-18T12:18:25;16.07;;;7.00;;
10582;SDS011;33679;51.218;6.786;2022-12-18T12:20:59;11.43;;;6.70;;
10582;SDS011;33679;51.218;6.786;2022-12-18T12:23:38;12.70;;;6.60;;
10582;SDS011;33679;51.218;6.786;2022-12-18T12:26:11;10.90;;;6.87;;
10582;SDS011;33679;51.218;6.786;2022-12-18T12:28:51;9.90;;;7.03;;
10582;SDS011;33679;51.218;6.786;2022-12-18T12:31:45;13.73;;;6.97;;
10582;SDS011;33679;51.218;6.786;2022-12-18T12:34:23;14.03;;;7.00;;
10582;SDS011;33679;51.218;6.786;2022-12-18T12:36:57;11.90;;;7.13;;
10582;SDS011;33679;51.218;6.786;2022-12-18T12:39:36;12.90;;;6.50;;
10582;SDS011;33679;51.218;6.786;2022-12-18T12:42:21;14.47;;;7.30;;
10582;SDS011;33679;51.218;6.786;2022-12-18T12:45:18;12.37;;;7.03;;
10582;SDS011;33679;51.218;6.786;2022-12-18T12:47:51;15.47;;;7.97;;
10582;SDS011;33679;51.218;6.786;2022-12-18T12:50:24;9.20;;;6.77;;
10582;SDS011;33679;51.218;6.786;2022-12-18T12:52:53;12.13;;;7.30;;
10582;SDS011;33679;51.218;6.786;2022-12-18T12:55:22;12.07;;;6.80;;
10582;SDS011;33679;51.218;6.786;2022-12-18T12:57:55;15.40;;;7.80;;
10582;SDS011;33679;51.218;6.786;2022-12-18T13:00:28;16.30;;;8.87;;
10582;SDS011;33679;51.218;6.786;2022-12-18T13:03:07;15.70;;;7.33;;
10582;SDS011;33679;51.218;6.786;2022-12-18T13:05:43;14.90;;;7.53;;
10582;SDS011;33679;51.218;6.786;2022-12-18T13:08:22;18.60;;;7.80;;
10582;SDS011;33679;51.218;6.786;2022-12-18T13:10:51;12.53;;;7.87;;
10582;SDS011;33679;51.218;6.786;2022-12-18T13:13:48;15.63;;;8.10;;
10582;SDS011;33679;51.218;6.786;2022-12-18T13:16:17;13.27;;;8.10;;
10582;SDS011;33679;51.218;6.786;2022-12-18T13:18:51;13.23;;;7.83;;
10582;SDS011;33679;51.218;6.786;2022-12-18T13:21:23;15.63;;;8.20;;
10582;SDS011;33679;51.218;6.786;2022-12-18T13:23:53;18.33;;;8.60;;
10582;SDS011;33679;51.218;6.786;2022-12-18T13:26:30;14.90;;;7.10;;
10582;SDS011;33679;51.218;6.786;2022-12-18T13:28:59;16.43;;;8.27;;
10582;SDS011;33679;51.218;6.786;2022-12-18T13:34:34;19.30;;;10.67;;
10582;SDS011;33679;51.218;6.786;2022-12-18T13:43:23;13.83;;;8.10;;
10582;SDS011;33679;51.218;6.786;2022-12-18T13:46:04;16.50;;;8.73;;
10582;SDS011;33679;51.218;6.786;2022-12-18T13:48:49;16.87;;;8.57;;
10582;SDS011;33679;51.218;6.786;2022-12-18T13:51:28;18.37;;;8.67;;
10582;SDS011;33679;51.218;6.786;2022-12-18T13:53:58;15.67;;;8.10;;
10582;SDS011;33679;51.218;6.786;2022-12-18T13:56:29;14.00;;;8.10;;
10582;SDS011;33679;51.218;6.786;2022-12-18T13:59:12;18.30;;;9.10;;
10582;SDS011;33679;51.218;6.786;2022-12-18T14:01:41;13.10;;;7.93;;
10582;SDS011;33679;51.218;6.786;2022-12-18T14:04:18;16.97;;;9.77;;
10582;SDS011;33679;51.218;6.786;2022-12-18T14:06:53;17.10;;;8.00;;
10582;SDS011;33679;51.218;6.786;2022-12-18T14:09:24;17.67;;;8.90;;
10582;SDS011;33679;51.218;6.786;2022-12-18T14:11:56;17.63;;;9.07;;
10582;SDS011;33679;51.218;6.786;2022-12-18T14:14:40;18.90;;;8.70;;
10582;SDS011;33679;51.218;6.786;2022-12-18T14:17:09;16.07;;;8.80;;
10582;SDS011;33679;51.218;6.786;2022-12-18T14:19:43;19.37;;;9.03;;
10582;SDS011;33679;51.218;6.786;2022-12-18T14:22:18;13.03;;;8.47;;
10582;SDS011;33679;51.218;6.786;2022-12-18T14:24:47;15.30;;;7.80;;
10582;SDS011;33679;51.218;6.786;2022-12-18T14:27:37;19.00;;;8.83;;
10582;SDS011;33679;51.218;6.786;2022-12-18T14:30:18;18.93;;;9.60;;
10582;SDS011;33679;51.218;6.786;2022-12-18T14:33:00;12.27;;;7.80;;
10582;SDS011;33679;51.218;6.786;2022-12-18T14:35:28;19.23;;;9.90;;
10582;SDS011;33679;51.218;6.786;2022-12-18T14:38:10;17.00;;;9.60;;
10582;SDS011;33679;51.218;6.786;2022-12-18T14:40:44;16.40;;;10.10;;
10582;SDS011;33679;51.218;6.786;2022-12-18T14:43:12;16.33;;;8.10;;
10582;SDS011;33679;51.218;6.786;2022-12-18T14:45:40;13.00;;;7.30;;
10582;SDS011;33679;51.218;6.786;2022-12-18T14:48:12;18.00;;;8.87;;
10582;SDS011;33679;51.218;6.786;2022-12-18T14:50:42;18.60;;;9.23;;
10582;SDS011;33679;51.218;6.786;2022-12-18T14:53:21;15.67;;;8.63;;
10582;SDS011;33679;51.218;6.786;2022-12-18T14:55:50;18.33;;;9.70;;
10582;SDS011;33679;51.218;6.786;2022-12-18T14:58:17;18.00;;;10.03;;
10582;SDS011;33679;51.218;6.786;2022-12-18T15:00:44;18.97;;;9.43;;
10582;SDS011;33679;51.218;6.786;2022-12-18T15:03:12;16.97;;;8.97;;
10582;SDS011;33679;51.218;6.786;2022-12-18T15:05:45;16.37;;;9.80;;
10582;SDS011;33679;51.218;6.786;2022-12-18T15:08:34;18.90;;;9.50;;
10582;SDS011;33679;51.218;6.786;2022-12-18T15:11:23;18.70;;;9.90;;
10582;SDS011;33679;51.218;6.786;2022-12-18T15:13:54;15.40;;;9.10;;
10582;SDS011;33679;51.218;6.786;2022-12-18T15:16:24;19.40;;;9.40;;